This is the latest recevied weather packets stored in our database for station/object IQ1LY-3. If no packets are shown the sender has not sent any weather packets the latest 10 day(s).
| Time | Temp. | Humidity | Pressure | Rain* | Wind** | Luminosity | Snow |
|---|---|---|---|---|---|---|---|
| 1777579318 | 18.33° C | 50% | 1020.7 hPa | 0 mm | - | - | - |
| 1777575842 | 18.89° C | 50% | 1020.3 hPa | 0 mm | - | - | - |
| 1777568370 | 20° C | 48% | 1019.3 hPa | 0 mm | - | - | - |
| 1777564961 | 21.11° C | 46% | 1019 hPa | 0 mm | - | - | - |
| 1777562494 | 21.67° C | 45% | 1019.3 hPa | 0 mm | - | - | - |
| 1777561893 | 21.67° C | 44% | 1019.3 hPa | 0 mm | - | - | - |
| 1777558858 | 21.11° C | 46% | 1019.3 hPa | 0 mm | - | - | - |
| 1777549511 | 21.67° C | 48% | 1019.3 hPa | 0 mm | - | - | - |
| 1777548910 | 21.11° C | 50% | 1019.3 hPa | 0 mm | - | - | - |
| 1777547697 | 20° C | 53% | 1019.6 hPa | 0 mm | - | - | - |
| 1777546495 | 20.56° C | 52% | 1019.3 hPa | 0 mm | - | - | - |
| 1777544661 | 21.11° C | 51% | 1019.3 hPa | 0 mm | - | - | - |
| 1777544060 | 21.11° C | 51% | 1019.3 hPa | 0 mm | - | - | - |
| 1777542858 | 19.44° C | 54% | 1019 hPa | 0 mm | - | - | - |
| 1777537326 | 19.44° C | 56% | 1018.6 hPa | 0 mm | - | - | - |
| 1777534923 | 18.89° C | 59% | 1018.3 hPa | 0 mm | - | - | - |
| 1777532519 | 18.89° C | 60% | 1017.6 hPa | 0 mm | - | - | - |
| 1777530115 | 18.33° C | 59% | 1017.3 hPa | 0 mm | - | - | - |
| 1777525878 | 18.33° C | 60% | 1016.9 hPa | 0 mm | - | - | - |
| 1777516680 | 15.56° C | 80% | 1016.3 hPa | 0 mm | - | - | - |
| 1777516079 | 15.56° C | 80% | 1016.3 hPa | 0 mm | - | - | - |
| 1777514877 | 15° C | 80% | 1016.3 hPa | 0 mm | - | - | - |
| 1777514245 | 15° C | 79% | 1015.9 hPa | 0 mm | - | - | - |
| 1777513042 | 15° C | 78% | 1015.6 hPa | 0 mm | - | - | - |
| 1777507603 | 15° C | 76% | 1015.6 hPa | 0 mm | - | - | - |
* Rain latest hour (hover to see other rain measurements)
** Current wind speed in m/s (hover to see current wind gust speed)